sensor_id;sensor_type;location;lat;lon;timestamp;P1;durP1;ratioP1;P2;durP2;ratioP2
22040;SDS011;11184;52.444;13.578;2023-07-13T00:00:55;12.70;;;2.38;;
22040;SDS011;11184;52.444;13.578;2023-07-13T00:03:40;9.27;;;2.17;;
22040;SDS011;11184;52.444;13.578;2023-07-13T00:06:25;4.15;;;2.05;;
22040;SDS011;11184;52.444;13.578;2023-07-13T00:09:16;5.05;;;2.05;;
22040;SDS011;11184;52.444;13.578;2023-07-13T00:12:01;4.13;;;1.70;;
22040;SDS011;11184;52.444;13.578;2023-07-13T00:14:46;4.82;;;1.90;;
22040;SDS011;11184;52.444;13.578;2023-07-13T00:17:31;2.70;;;1.55;;
22040;SDS011;11184;52.444;13.578;2023-07-13T00:20:16;3.58;;;2.00;;
22040;SDS011;11184;52.444;13.578;2023-07-13T00:23:00;4.70;;;2.13;;
22040;SDS011;11184;52.444;13.578;2023-07-13T00:25:45;4.93;;;2.08;;
22040;SDS011;11184;52.444;13.578;2023-07-13T00:28:30;2.90;;;1.52;;
22040;SDS011;11184;52.444;13.578;2023-07-13T00:31:15;5.18;;;1.95;;
22040;SDS011;11184;52.444;13.578;2023-07-13T00:34:00;3.53;;;1.50;;
22040;SDS011;11184;52.444;13.578;2023-07-13T00:36:45;3.85;;;1.80;;
22040;SDS011;11184;52.444;13.578;2023-07-13T00:39:29;5.78;;;2.30;;
22040;SDS011;11184;52.444;13.578;2023-07-13T00:42:14;6.50;;;2.20;;
22040;SDS011;11184;52.444;13.578;2023-07-13T00:47:56;4.65;;;2.25;;
22040;SDS011;11184;52.444;13.578;2023-07-13T00:50:41;3.58;;;2.35;;
22040;SDS011;11184;52.444;13.578;2023-07-13T00:53:27;4.22;;;2.17;;
22040;SDS011;11184;52.444;13.578;2023-07-13T00:56:13;3.85;;;2.17;;
22040;SDS011;11184;52.444;13.578;2023-07-13T00:58:58;2.10;;;1.70;;
22040;SDS011;11184;52.444;13.578;2023-07-13T01:01:44;6.22;;;2.50;;
22040;SDS011;11184;52.444;13.578;2023-07-13T01:04:28;3.60;;;2.60;;
22040;SDS011;11184;52.444;13.578;2023-07-13T01:07:13;2.70;;;2.05;;
22040;SDS011;11184;52.444;13.578;2023-07-13T01:09:58;4.90;;;2.10;;
22040;SDS011;11184;52.444;13.578;2023-07-13T01:12:42;5.15;;;2.13;;
22040;SDS011;11184;52.444;13.578;2023-07-13T01:15:43;2.80;;;2.40;;
22040;SDS011;11184;52.444;13.578;2023-07-13T01:18:28;3.53;;;1.75;;
22040;SDS011;11184;52.444;13.578;2023-07-13T01:21:13;4.45;;;1.73;;
22040;SDS011;11184;52.444;13.578;2023-07-13T01:23:58;6.00;;;2.20;;
22040;SDS011;11184;52.444;13.578;2023-07-13T01:26:42;2.35;;;1.70;;
22040;SDS011;11184;52.444;13.578;2023-07-13T01:29:27;5.00;;;2.22;;
22040;SDS011;11184;52.444;13.578;2023-07-13T01:32:13;6.55;;;2.20;;
22040;SDS011;11184;52.444;13.578;2023-07-13T01:34:58;5.25;;;2.75;;
22040;SDS011;11184;52.444;13.578;2023-07-13T01:37:42;3.28;;;1.90;;
22040;SDS011;11184;52.444;13.578;2023-07-13T01:40:28;3.05;;;2.15;;
22040;SDS011;11184;52.444;13.578;2023-07-13T01:43:13;5.43;;;2.30;;
22040;SDS011;11184;52.444;13.578;2023-07-13T01:45:58;2.38;;;1.77;;
22040;SDS011;11184;52.444;13.578;2023-07-13T01:48:42;7.35;;;2.65;;
22040;SDS011;11184;52.444;13.578;2023-07-13T01:51:27;3.65;;;2.33;;
22040;SDS011;11184;52.444;13.578;2023-07-13T01:54:11;7.32;;;2.50;;
22040;SDS011;11184;52.444;13.578;2023-07-13T01:56:56;5.35;;;2.22;;
22040;SDS011;11184;52.444;13.578;2023-07-13T01:59:41;5.07;;;2.80;;
22040;SDS011;11184;52.444;13.578;2023-07-13T02:02:25;8.57;;;2.30;;
22040;SDS011;11184;52.444;13.578;2023-07-13T02:05:10;6.68;;;2.35;;
22040;SDS011;11184;52.444;13.578;2023-07-13T02:07:55;7.00;;;2.42;;
22040;SDS011;11184;52.444;13.578;2023-07-13T02:10:40;4.38;;;2.22;;
22040;SDS011;11184;52.444;13.578;2023-07-13T02:13:24;7.40;;;2.70;;
22040;SDS011;11184;52.444;13.578;2023-07-13T02:16:09;3.45;;;2.05;;
22040;SDS011;11184;52.444;13.578;2023-07-13T02:18:54;5.05;;;2.83;;
22040;SDS011;11184;52.444;13.578;2023-07-13T02:21:39;5.03;;;2.90;;
22040;SDS011;11184;52.444;13.578;2023-07-13T02:24:23;5.95;;;2.15;;
22040;SDS011;11184;52.444;13.578;2023-07-13T02:27:09;7.07;;;2.83;;
22040;SDS011;11184;52.444;13.578;2023-07-13T02:29:53;7.97;;;3.75;;
22040;SDS011;11184;52.444;13.578;2023-07-13T02:32:38;8.15;;;3.45;;
22040;SDS011;11184;52.444;13.578;2023-07-13T02:35:22;6.38;;;3.30;;
22040;SDS011;11184;52.444;13.578;2023-07-13T02:38:08;3.80;;;3.10;;
22040;SDS011;11184;52.444;13.578;2023-07-13T02:40:52;4.65;;;3.30;;
22040;SDS011;11184;52.444;13.578;2023-07-13T02:43:37;3.97;;;3.10;;
22040;SDS011;11184;52.444;13.578;2023-07-13T02:46:22;4.50;;;3.17;;
22040;SDS011;11184;52.444;13.578;2023-07-13T02:49:08;3.25;;;2.95;;
22040;SDS011;11184;52.444;13.578;2023-07-13T02:51:52;4.03;;;3.22;;
22040;SDS011;11184;52.444;13.578;2023-07-13T02:54:37;4.35;;;3.92;;
22040;SDS011;11184;52.444;13.578;2023-07-13T02:57:22;3.42;;;3.13;;
22040;SDS011;11184;52.444;13.578;2023-07-13T03:00:06;9.40;;;3.35;;
22040;SDS011;11184;52.444;13.578;2023-07-13T03:02:52;5.07;;;4.05;;
22040;SDS011;11184;52.444;13.578;2023-07-13T03:05:37;12.52;;;5.35;;
22040;SDS011;11184;52.444;13.578;2023-07-13T03:08:22;4.38;;;3.83;;
22040;SDS011;11184;52.444;13.578;2023-07-13T03:11:08;7.05;;;4.07;;
22040;SDS011;11184;52.444;13.578;2023-07-13T03:13:54;5.78;;;3.60;;
22040;SDS011;11184;52.444;13.578;2023-07-13T03:16:39;5.35;;;4.25;;
22040;SDS011;11184;52.444;13.578;2023-07-13T03:19:24;5.50;;;3.55;;
22040;SDS011;11184;52.444;13.578;2023-07-13T03:22:09;6.20;;;4.43;;
22040;SDS011;11184;52.444;13.578;2023-07-13T03:24:54;6.20;;;3.60;;
22040;SDS011;11184;52.444;13.578;2023-07-13T03:27:39;7.78;;;4.13;;
22040;SDS011;11184;52.444;13.578;2023-07-13T03:30:24;5.55;;;4.10;;
22040;SDS011;11184;52.444;13.578;2023-07-13T03:33:08;5.35;;;3.58;;
22040;SDS011;11184;52.444;13.578;2023-07-13T03:35:53;4.25;;;3.63;;
22040;SDS011;11184;52.444;13.578;2023-07-13T03:38:37;6.35;;;3.40;;
22040;SDS011;11184;52.444;13.578;2023-07-13T03:41:22;3.78;;;2.97;;
22040;SDS011;11184;52.444;13.578;2023-07-13T03:44:07;5.55;;;3.97;;
22040;SDS011;11184;52.444;13.578;2023-07-13T03:46:52;9.10;;;4.35;;
22040;SDS011;11184;52.444;13.578;2023-07-13T03:49:36;7.50;;;4.05;;
22040;SDS011;11184;52.444;13.578;2023-07-13T03:52:21;5.85;;;4.10;;
22040;SDS011;11184;52.444;13.578;2023-07-13T03:55:06;5.57;;;3.50;;
22040;SDS011;11184;52.444;13.578;2023-07-13T03:57:53;6.78;;;4.88;;
22040;SDS011;11184;52.444;13.578;2023-07-13T04:00:39;3.85;;;3.55;;
22040;SDS011;11184;52.444;13.578;2023-07-13T04:03:23;7.10;;;3.75;;
22040;SDS011;11184;52.444;13.578;2023-07-13T04:06:11;4.57;;;3.70;;
22040;SDS011;11184;52.444;13.578;2023-07-13T04:08:59;6.63;;;3.90;;
22040;SDS011;11184;52.444;13.578;2023-07-13T04:11:44;7.53;;;3.30;;
22040;SDS011;11184;52.444;13.578;2023-07-13T04:14:29;5.53;;;4.38;;
22040;SDS011;11184;52.444;13.578;2023-07-13T04:17:13;7.07;;;4.10;;
22040;SDS011;11184;52.444;13.578;2023-07-13T04:19:58;8.00;;;3.67;;
22040;SDS011;11184;52.444;13.578;2023-07-13T04:22:42;5.13;;;3.85;;
22040;SDS011;11184;52.444;13.578;2023-07-13T04:25:27;7.18;;;4.03;;
22040;SDS011;11184;52.444;13.578;2023-07-13T04:28:12;6.32;;;4.00;;
22040;SDS011;11184;52.444;13.578;2023-07-13T04:30:56;4.07;;;3.67;;
22040;SDS011;11184;52.444;13.578;2023-07-13T04:33:41;7.50;;;3.70;;
22040;SDS011;11184;52.444;13.578;2023-07-13T04:36:26;10.88;;;4.20;;
22040;SDS011;11184;52.444;13.578;2023-07-13T04:39:10;7.32;;;3.83;;
22040;SDS011;11184;52.444;13.578;2023-07-13T04:41:55;5.57;;;3.70;;
22040;SDS011;11184;52.444;13.578;2023-07-13T04:44:40;4.72;;;3.50;;
22040;SDS011;11184;52.444;13.578;2023-07-13T04:47:24;5.97;;;3.25;;
22040;SDS011;11184;52.444;13.578;2023-07-13T04:50:09;6.10;;;3.63;;
22040;SDS011;11184;52.444;13.578;2023-07-13T04:52:54;6.38;;;3.17;;
22040;SDS011;11184;52.444;13.578;2023-07-13T04:55:39;4.25;;;3.08;;
22040;SDS011;11184;52.444;13.578;2023-07-13T04:58:24;5.32;;;4.07;;
22040;SDS011;11184;52.444;13.578;2023-07-13T05:01:09;4.38;;;3.38;;
22040;SDS011;11184;52.444;13.578;2023-07-13T05:03:54;7.15;;;3.80;;
22040;SDS011;11184;52.444;13.578;2023-07-13T05:06:41;3.30;;;2.95;;
22040;SDS011;11184;52.444;13.578;2023-07-13T05:09:25;6.47;;;2.75;;
22040;SDS011;11184;52.444;13.578;2023-07-13T05:12:10;4.93;;;3.13;;
22040;SDS011;11184;52.444;13.578;2023-07-13T05:14:55;3.10;;;2.08;;
22040;SDS011;11184;52.444;13.578;2023-07-13T05:17:39;6.05;;;3.33;;
22040;SDS011;11184;52.444;13.578;2023-07-13T05:20:24;6.90;;;2.88;;
22040;SDS011;11184;52.444;13.578;2023-07-13T05:23:08;6.20;;;2.80;;
22040;SDS011;11184;52.444;13.578;2023-07-13T05:25:53;5.45;;;4.38;;
22040;SDS011;11184;52.444;13.578;2023-07-13T05:28:38;5.28;;;2.63;;
22040;SDS011;11184;52.444;13.578;2023-07-13T05:31:22;5.07;;;3.72;;
22040;SDS011;11184;52.444;13.578;2023-07-13T05:34:07;2.55;;;2.28;;
22040;SDS011;11184;52.444;13.578;2023-07-13T05:36:51;5.07;;;3.05;;
22040;SDS011;11184;52.444;13.578;2023-07-13T05:39:36;6.25;;;2.28;;
22040;SDS011;11184;52.444;13.578;2023-07-13T05:42:21;2.10;;;1.90;;
22040;SDS011;11184;52.444;13.578;2023-07-13T05:45:06;5.13;;;2.53;;
22040;SDS011;11184;52.444;13.578;2023-07-13T05:47:50;3.15;;;2.35;;
22040;SDS011;11184;52.444;13.578;2023-07-13T05:50:35;4.88;;;1.75;;
22040;SDS011;11184;52.444;13.578;2023-07-13T05:53:20;9.73;;;2.20;;
22040;SDS011;11184;52.444;13.578;2023-07-13T05:56:04;4.63;;;2.22;;
22040;SDS011;11184;52.444;13.578;2023-07-13T05:58:49;5.93;;;1.45;;
22040;SDS011;11184;52.444;13.578;2023-07-13T06:01:33;2.55;;;1.70;;
22040;SDS011;11184;52.444;13.578;2023-07-13T06:04:18;2.72;;;1.45;;
22040;SDS011;11184;52.444;13.578;2023-07-13T06:07:03;6.43;;;1.77;;
22040;SDS011;11184;52.444;13.578;2023-07-13T06:09:48;3.60;;;1.25;;
22040;SDS011;11184;52.444;13.578;2023-07-13T06:12:33;3.30;;;1.70;;
22040;SDS011;11184;52.444;13.578;2023-07-13T06:15:18;5.85;;;1.85;;
22040;SDS011;11184;52.444;13.578;2023-07-13T06:18:02;6.65;;;1.83;;
22040;SDS011;11184;52.444;13.578;2023-07-13T06:20:47;7.95;;;2.00;;
22040;SDS011;11184;52.444;13.578;2023-07-13T06:23:31;2.03;;;1.20;;
22040;SDS011;11184;52.444;13.578;2023-07-13T06:26:16;4.53;;;1.58;;
22040;SDS011;11184;52.444;13.578;2023-07-13T06:29:01;4.80;;;2.05;;
22040;SDS011;11184;52.444;13.578;2023-07-13T06:31:46;8.05;;;1.98;;
22040;SDS011;11184;52.444;13.578;2023-07-13T06:34:31;3.83;;;2.03;;
22040;SDS011;11184;52.444;13.578;2023-07-13T06:37:16;8.13;;;2.70;;
22040;SDS011;11184;52.444;13.578;2023-07-13T06:40:00;4.68;;;1.73;;
22040;SDS011;11184;52.444;13.578;2023-07-13T06:42:45;2.67;;;1.23;;
22040;SDS011;11184;52.444;13.578;2023-07-13T06:45:30;6.35;;;2.00;;
22040;SDS011;11184;52.444;13.578;2023-07-13T06:48:17;1.20;;;0.80;;
22040;SDS011;11184;52.444;13.578;2023-07-13T06:51:03;2.38;;;1.77;;
22040;SDS011;11184;52.444;13.578;2023-07-13T06:53:48;3.15;;;1.65;;
22040;SDS011;11184;52.444;13.578;2023-07-13T06:56:33;6.75;;;2.00;;
22040;SDS011;11184;52.444;13.578;2023-07-13T06:59:18;2.83;;;1.55;;
22040;SDS011;11184;52.444;13.578;2023-07-13T07:02:03;4.15;;;1.73;;
22040;SDS011;11184;52.444;13.578;2023-07-13T07:04:48;2.88;;;2.10;;
22040;SDS011;11184;52.444;13.578;2023-07-13T07:07:33;7.82;;;1.40;;
22040;SDS011;11184;52.444;13.578;2023-07-13T07:10:18;4.18;;;1.33;;
22040;SDS011;11184;52.444;13.578;2023-07-13T07:13:03;2.30;;;1.70;;
22040;SDS011;11184;52.444;13.578;2023-07-13T07:15:49;4.45;;;1.55;;
22040;SDS011;11184;52.444;13.578;2023-07-13T07:18:34;2.15;;;1.40;;
22040;SDS011;11184;52.444;13.578;2023-07-13T07:21:19;3.78;;;1.83;;
22040;SDS011;11184;52.444;13.578;2023-07-13T07:24:06;3.25;;;1.10;;
22040;SDS011;11184;52.444;13.578;2023-07-13T07:26:51;1.38;;;1.10;;
22040;SDS011;11184;52.444;13.578;2023-07-13T07:29:36;4.90;;;1.23;;
22040;SDS011;11184;52.444;13.578;2023-07-13T07:32:20;4.50;;;1.05;;
22040;SDS011;11184;52.444;13.578;2023-07-13T07:35:05;2.47;;;1.17;;
22040;SDS011;11184;52.444;13.578;2023-07-13T07:37:50;2.13;;;1.05;;
22040;SDS011;11184;52.444;13.578;2023-07-13T07:40:38;2.03;;;0.95;;
22040;SDS011;11184;52.444;13.578;2023-07-13T07:43:24;2.08;;;0.93;;
22040;SDS011;11184;52.444;13.578;2023-07-13T07:46:08;5.57;;;1.08;;
22040;SDS011;11184;52.444;13.578;2023-07-13T07:48:53;3.67;;;0.80;;
22040;SDS011;11184;52.444;13.578;2023-07-13T07:51:38;2.88;;;1.30;;
22040;SDS011;11184;52.444;13.578;2023-07-13T07:54:22;8.27;;;1.48;;
22040;SDS011;11184;52.444;13.578;2023-07-13T07:57:07;6.93;;;1.50;;
22040;SDS011;11184;52.444;13.578;2023-07-13T07:59:51;3.83;;;1.30;;
22040;SDS011;11184;52.444;13.578;2023-07-13T08:02:36;1.77;;;1.10;;
22040;SDS011;11184;52.444;13.578;2023-07-13T08:05:20;5.95;;;2.03;;
22040;SDS011;11184;52.444;13.578;2023-07-13T08:08:05;2.78;;;0.88;;
22040;SDS011;11184;52.444;13.578;2023-07-13T08:10:50;3.10;;;1.05;;
22040;SDS011;11184;52.444;13.578;2023-07-13T08:13:34;3.42;;;1.00;;
22040;SDS011;11184;52.444;13.578;2023-07-13T08:16:19;2.45;;;0.93;;
22040;SDS011;11184;52.444;13.578;2023-07-13T08:19:03;2.15;;;1.08;;
22040;SDS011;11184;52.444;13.578;2023-07-13T08:21:49;1.27;;;0.88;;
22040;SDS011;11184;52.444;13.578;2023-07-13T08:24:33;3.55;;;0.90;;
22040;SDS011;11184;52.444;13.578;2023-07-13T08:27:18;4.18;;;1.83;;
22040;SDS011;11184;52.444;13.578;2023-07-13T08:30:03;2.17;;;0.80;;
22040;SDS011;11184;52.444;13.578;2023-07-13T08:32:49;1.88;;;0.70;;
22040;SDS011;11184;52.444;13.578;2023-07-13T08:35:34;1.90;;;0.73;;
22040;SDS011;11184;52.444;13.578;2023-07-13T08:38:18;3.10;;;1.00;;
22040;SDS011;11184;52.444;13.578;2023-07-13T08:41:09;2.83;;;1.05;;
22040;SDS011;11184;52.444;13.578;2023-07-13T08:43:58;2.72;;;1.20;;
22040;SDS011;11184;52.444;13.578;2023-07-13T08:46:44;1.95;;;0.82;;
22040;SDS011;11184;52.444;13.578;2023-07-13T08:49:30;2.28;;;0.93;;
22040;SDS011;11184;52.444;13.578;2023-07-13T08:52:36;1.52;;;0.93;;
22040;SDS011;11184;52.444;13.578;2023-07-13T08:55:21;5.85;;;1.00;;
22040;SDS011;11184;52.444;13.578;2023-07-13T08:58:13;2.72;;;1.08;;
22040;SDS011;11184;52.444;13.578;2023-07-13T09:01:02;4.70;;;1.23;;
22040;SDS011;11184;52.444;13.578;2023-07-13T09:03:55;2.50;;;1.00;;
22040;SDS011;11184;52.444;13.578;2023-07-13T09:06:47;1.50;;;0.80;;
22040;SDS011;11184;52.444;13.578;2023-07-13T09:15:27;6.20;;;1.45;;
22040;SDS011;11184;52.444;13.578;2023-07-13T09:18:25;2.38;;;0.93;;
22040;SDS011;11184;52.444;13.578;2023-07-13T09:21:12;2.30;;;1.30;;
22040;SDS011;11184;52.444;13.578;2023-07-13T09:23:59;2.10;;;1.08;;
22040;SDS011;11184;52.444;13.578;2023-07-13T09:26:45;2.47;;;0.80;;
22040;SDS011;11184;52.444;13.578;2023-07-13T09:29:31;3.88;;;1.13;;
22040;SDS011;11184;52.444;13.578;2023-07-13T09:32:18;2.88;;;1.00;;
22040;SDS011;11184;52.444;13.578;2023-07-13T09:35:09;4.40;;;1.33;;
22040;SDS011;11184;52.444;13.578;2023-07-13T09:37:59;3.00;;;1.35;;
22040;SDS011;11184;52.444;13.578;2023-07-13T09:43:31;2.63;;;1.00;;
22040;SDS011;11184;52.444;13.578;2023-07-13T09:46:20;2.10;;;1.33;;
22040;SDS011;11184;52.444;13.578;2023-07-13T09:49:07;4.30;;;1.23;;
22040;SDS011;11184;52.444;13.578;2023-07-13T09:52:00;2.13;;;1.25;;
22040;SDS011;11184;52.444;13.578;2023-07-13T09:54:48;3.30;;;1.35;;
22040;SDS011;11184;52.444;13.578;2023-07-13T09:57:39;1.98;;;1.20;;
22040;SDS011;11184;52.444;13.578;2023-07-13T10:00:31;4.18;;;1.35;;
22040;SDS011;11184;52.444;13.578;2023-07-13T10:03:18;4.38;;;1.40;;
22040;SDS011;11184;52.444;13.578;2023-07-13T10:06:17;4.38;;;0.98;;
22040;SDS011;11184;52.444;13.578;2023-07-13T10:09:03;3.63;;;0.82;;
22040;SDS011;11184;52.444;13.578;2023-07-13T10:11:51;3.58;;;1.33;;
22040;SDS011;11184;52.444;13.578;2023-07-13T10:14:36;2.90;;;1.02;;
22040;SDS011;11184;52.444;13.578;2023-07-13T10:17:27;2.78;;;1.30;;
22040;SDS011;11184;52.444;13.578;2023-07-13T10:20:16;3.38;;;1.67;;
22040;SDS011;11184;52.444;13.578;2023-07-13T10:23:02;6.65;;;1.90;;
22040;SDS011;11184;52.444;13.578;2023-07-13T10:25:48;8.65;;;2.10;;
22040;SDS011;11184;52.444;13.578;2023-07-13T10:28:35;3.38;;;1.73;;
22040;SDS011;11184;52.444;13.578;2023-07-13T10:31:21;3.17;;;1.98;;
22040;SDS011;11184;52.444;13.578;2023-07-13T10:34:08;7.13;;;2.50;;
22040;SDS011;11184;52.444;13.578;2023-07-13T10:36:53;2.92;;;1.42;;
22040;SDS011;11184;52.444;13.578;2023-07-13T10:39:38;3.75;;;1.92;;
22040;SDS011;11184;52.444;13.578;2023-07-13T10:42:41;2.58;;;2.03;;
22040;SDS011;11184;52.444;13.578;2023-07-13T10:45:28;3.05;;;2.38;;
22040;SDS011;11184;52.444;13.578;2023-07-13T10:48:14;3.83;;;2.10;;
22040;SDS011;11184;52.444;13.578;2023-07-13T10:50:59;8.93;;;1.88;;
22040;SDS011;11184;52.444;13.578;2023-07-13T10:53:45;2.72;;;1.48;;
22040;SDS011;11184;52.444;13.578;2023-07-13T10:56:29;6.03;;;2.45;;
22040;SDS011;11184;52.444;13.578;2023-07-13T10:59:15;2.83;;;1.92;;
22040;SDS011;11184;52.444;13.578;2023-07-13T11:04:46;4.72;;;2.45;;
22040;SDS011;11184;52.444;13.578;2023-07-13T11:07:32;4.35;;;1.85;;
22040;SDS011;11184;52.444;13.578;2023-07-13T11:10:55;3.08;;;1.65;;
22040;SDS011;11184;52.444;13.578;2023-07-13T11:16:36;5.45;;;2.10;;
22040;SDS011;11184;52.444;13.578;2023-07-13T11:24:59;1.95;;;1.27;;
22040;SDS011;11184;52.444;13.578;2023-07-13T11:27:51;6.60;;;1.83;;
22040;SDS011;11184;52.444;13.578;2023-07-13T11:30:49;4.70;;;1.95;;
22040;SDS011;11184;52.444;13.578;2023-07-13T11:33:47;2.42;;;1.67;;
22040;SDS011;11184;52.444;13.578;2023-07-13T11:36:36;1.98;;;1.27;;
22040;SDS011;11184;52.444;13.578;2023-07-13T11:39:29;3.53;;;1.95;;
22040;SDS011;11184;52.444;13.578;2023-07-13T11:42:16;5.72;;;1.83;;
22040;SDS011;11184;52.444;13.578;2023-07-13T11:45:01;3.45;;;1.83;;
22040;SDS011;11184;52.444;13.578;2023-07-13T11:47:45;3.47;;;1.55;;
22040;SDS011;11184;52.444;13.578;2023-07-13T11:50:30;1.40;;;1.10;;
22040;SDS011;11184;52.444;13.578;2023-07-13T11:53:15;1.60;;;1.10;;
22040;SDS011;11184;52.444;13.578;2023-07-13T11:56:00;3.90;;;1.58;;
22040;SDS011;11184;52.444;13.578;2023-07-13T11:58:47;2.55;;;1.20;;
22040;SDS011;11184;52.444;13.578;2023-07-13T12:01:32;2.42;;;1.23;;
22040;SDS011;11184;52.444;13.578;2023-07-13T12:04:25;2.92;;;1.20;;
22040;SDS011;11184;52.444;13.578;2023-07-13T12:07:15;3.72;;;1.48;;
22040;SDS011;11184;52.444;13.578;2023-07-13T12:10:10;2.30;;;1.20;;
22040;SDS011;11184;52.444;13.578;2023-07-13T12:13:01;4.13;;;1.67;;
22040;SDS011;11184;52.444;13.578;2023-07-13T12:15:46;2.75;;;1.67;;
22040;SDS011;11184;52.444;13.578;2023-07-13T12:18:32;1.45;;;1.30;;
22040;SDS011;11184;52.444;13.578;2023-07-13T12:21:18;2.38;;;1.75;;
22040;SDS011;11184;52.444;13.578;2023-07-13T12:24:04;5.70;;;2.60;;
22040;SDS011;11184;52.444;13.578;2023-07-13T12:26:59;4.88;;;2.25;;
22040;SDS011;11184;52.444;13.578;2023-07-13T12:29:49;3.05;;;1.30;;
22040;SDS011;11184;52.444;13.578;2023-07-13T12:32:34;3.80;;;1.73;;
22040;SDS011;11184;52.444;13.578;2023-07-13T12:35:18;2.30;;;1.08;;
22040;SDS011;11184;52.444;13.578;2023-07-13T12:38:04;3.63;;;1.48;;
22040;SDS011;11184;52.444;13.578;2023-07-13T12:40:52;3.15;;;1.77;;
22040;SDS011;11184;52.444;13.578;2023-07-13T12:43:37;4.20;;;1.80;;
22040;SDS011;11184;52.444;13.578;2023-07-13T12:46:23;3.53;;;1.65;;
22040;SDS011;11184;52.444;13.578;2023-07-13T12:49:08;5.57;;;1.10;;
22040;SDS011;11184;52.444;13.578;2023-07-13T12:51:57;2.63;;;1.77;;
22040;SDS011;11184;52.444;13.578;2023-07-13T12:54:51;2.22;;;1.42;;
22040;SDS011;11184;52.444;13.578;2023-07-13T12:57:41;4.47;;;1.50;;
22040;SDS011;11184;52.444;13.578;2023-07-13T13:00:28;8.30;;;1.58;;
22040;SDS011;11184;52.444;13.578;2023-07-13T13:06:20;2.33;;;1.27;;
22040;SDS011;11184;52.444;13.578;2023-07-13T13:09:09;2.28;;;1.13;;
22040;SDS011;11184;52.444;13.578;2023-07-13T13:11:55;2.42;;;1.10;;
22040;SDS011;11184;52.444;13.578;2023-07-13T13:14:40;4.80;;;1.67;;
22040;SDS011;11184;52.444;13.578;2023-07-13T13:17:29;2.80;;;1.40;;
22040;SDS011;11184;52.444;13.578;2023-07-13T13:20:16;3.50;;;1.10;;
22040;SDS011;11184;52.444;13.578;2023-07-13T13:23:00;1.70;;;1.25;;
22040;SDS011;11184;52.444;13.578;2023-07-13T13:25:46;3.40;;;1.58;;
22040;SDS011;11184;52.444;13.578;2023-07-13T13:28:31;4.22;;;1.33;;
22040;SDS011;11184;52.444;13.578;2023-07-13T13:31:16;4.85;;;1.85;;
22040;SDS011;11184;52.444;13.578;2023-07-13T13:34:01;1.63;;;1.23;;
22040;SDS011;11184;52.444;13.578;2023-07-13T13:36:46;1.73;;;1.48;;
22040;SDS011;11184;52.444;13.578;2023-07-13T13:39:35;2.33;;;0.90;;
22040;SDS011;11184;52.444;13.578;2023-07-13T13:42:20;7.80;;;1.10;;
22040;SDS011;11184;52.444;13.578;2023-07-13T13:45:11;5.43;;;1.55;;
22040;SDS011;11184;52.444;13.578;2023-07-13T13:47:56;3.45;;;1.20;;
22040;SDS011;11184;52.444;13.578;2023-07-13T13:50:41;2.65;;;1.55;;
22040;SDS011;11184;52.444;13.578;2023-07-13T13:53:25;5.95;;;1.45;;
22040;SDS011;11184;52.444;13.578;2023-07-13T13:56:10;2.50;;;0.95;;
22040;SDS011;11184;52.444;13.578;2023-07-13T13:58:55;3.72;;;1.10;;
22040;SDS011;11184;52.444;13.578;2023-07-13T14:01:40;2.72;;;1.05;;
22040;SDS011;11184;52.444;13.578;2023-07-13T14:04:25;2.83;;;1.30;;
22040;SDS011;11184;52.444;13.578;2023-07-13T14:07:10;1.50;;;0.90;;
22040;SDS011;11184;52.444;13.578;2023-07-13T14:09:55;4.13;;;1.42;;
22040;SDS011;11184;52.444;13.578;2023-07-13T14:12:41;1.77;;;0.80;;
22040;SDS011;11184;52.444;13.578;2023-07-13T14:15:28;2.88;;;1.60;;
22040;SDS011;11184;52.444;13.578;2023-07-13T14:18:17;3.00;;;1.23;;
22040;SDS011;11184;52.444;13.578;2023-07-13T14:21:01;1.40;;;0.75;;
22040;SDS011;11184;52.444;13.578;2023-07-13T14:23:47;4.75;;;1.08;;
22040;SDS011;11184;52.444;13.578;2023-07-13T14:26:32;2.00;;;0.93;;
22040;SDS011;11184;52.444;13.578;2023-07-13T14:29:18;3.88;;;1.25;;
22040;SDS011;11184;52.444;13.578;2023-07-13T14:32:08;4.90;;;1.00;;
22040;SDS011;11184;52.444;13.578;2023-07-13T14:34:54;5.35;;;1.25;;
22040;SDS011;11184;52.444;13.578;2023-07-13T14:37:40;3.25;;;0.80;;
22040;SDS011;11184;52.444;13.578;2023-07-13T14:40:29;6.55;;;1.52;;
22040;SDS011;11184;52.444;13.578;2023-07-13T14:43:15;2.35;;;0.73;;
22040;SDS011;11184;52.444;13.578;2023-07-13T14:46:00;1.92;;;1.10;;
22040;SDS011;11184;52.444;13.578;2023-07-13T14:48:45;2.03;;;1.25;;
22040;SDS011;11184;52.444;13.578;2023-07-13T14:51:30;5.15;;;0.65;;
22040;SDS011;11184;52.444;13.578;2023-07-13T14:54:15;1.70;;;0.80;;
22040;SDS011;11184;52.444;13.578;2023-07-13T14:57:00;3.25;;;1.05;;
22040;SDS011;11184;52.444;13.578;2023-07-13T14:59:45;3.00;;;1.00;;
22040;SDS011;11184;52.444;13.578;2023-07-13T15:02:31;3.70;;;1.02;;
22040;SDS011;11184;52.444;13.578;2023-07-13T15:05:18;1.80;;;0.55;;
22040;SDS011;11184;52.444;13.578;2023-07-13T15:08:04;4.45;;;0.65;;
22040;SDS011;11184;52.444;13.578;2023-07-13T15:10:49;5.55;;;0.90;;
22040;SDS011;11184;52.444;13.578;2023-07-13T15:13:33;3.40;;;1.02;;
22040;SDS011;11184;52.444;13.578;2023-07-13T15:16:24;2.40;;;1.13;;
22040;SDS011;11184;52.444;13.578;2023-07-13T15:19:09;2.85;;;0.70;;
22040;SDS011;11184;52.444;13.578;2023-07-13T15:21:55;2.80;;;1.27;;
22040;SDS011;11184;52.444;13.578;2023-07-13T15:24:41;2.05;;;0.80;;
22040;SDS011;11184;52.444;13.578;2023-07-13T15:27:25;5.45;;;0.90;;
22040;SDS011;11184;52.444;13.578;2023-07-13T15:30:11;1.60;;;0.70;;
22040;SDS011;11184;52.444;13.578;2023-07-13T15:33:05;1.98;;;0.90;;
22040;SDS011;11184;52.444;13.578;2023-07-13T15:35:55;2.50;;;0.82;;
22040;SDS011;11184;52.444;13.578;2023-07-13T15:38:41;2.08;;;0.90;;
22040;SDS011;11184;52.444;13.578;2023-07-13T15:41:28;3.60;;;0.52;;
22040;SDS011;11184;52.444;13.578;2023-07-13T15:44:29;1.85;;;0.50;;
22040;SDS011;11184;52.444;13.578;2023-07-13T15:47:15;2.72;;;1.08;;
22040;SDS011;11184;52.444;13.578;2023-07-13T15:49:59;1.40;;;0.60;;
22040;SDS011;11184;52.444;13.578;2023-07-13T15:52:45;2.53;;;0.40;;
22040;SDS011;11184;52.444;13.578;2023-07-13T15:55:37;5.22;;;0.90;;
22040;SDS011;11184;52.444;13.578;2023-07-13T15:58:23;5.88;;;0.98;;
22040;SDS011;11184;52.444;13.578;2023-07-13T16:01:09;3.75;;;0.40;;
22040;SDS011;11184;52.444;13.578;2023-07-13T16:03:55;1.23;;;0.50;;
22040;SDS011;11184;52.444;13.578;2023-07-13T16:06:40;2.38;;;0.65;;
22040;SDS011;11184;52.444;13.578;2023-07-13T16:09:25;4.57;;;0.75;;
22040;SDS011;11184;52.444;13.578;2023-07-13T16:12:10;0.95;;;0.60;;
22040;SDS011;11184;52.444;13.578;2023-07-13T16:14:55;3.63;;;0.80;;
22040;SDS011;11184;52.444;13.578;2023-07-13T16:17:40;1.73;;;0.90;;
22040;SDS011;11184;52.444;13.578;2023-07-13T16:20:25;3.13;;;0.90;;
22040;SDS011;11184;52.444;13.578;2023-07-13T16:23:12;1.90;;;0.88;;
22040;SDS011;11184;52.444;13.578;2023-07-13T16:25:57;0.98;;;0.50;;
22040;SDS011;11184;52.444;13.578;2023-07-13T16:28:41;1.48;;;0.80;;
22040;SDS011;11184;52.444;13.578;2023-07-13T16:31:30;1.73;;;0.88;;
22040;SDS011;11184;52.444;13.578;2023-07-13T16:34:18;3.65;;;0.65;;
22040;SDS011;11184;52.444;13.578;2023-07-13T16:37:05;1.00;;;0.50;;
22040;SDS011;11184;52.444;13.578;2023-07-13T16:39:55;1.17;;;0.65;;
22040;SDS011;11184;52.444;13.578;2023-07-13T16:42:44;3.05;;;0.95;;
22040;SDS011;11184;52.444;13.578;2023-07-13T16:45:29;2.20;;;0.90;;
22040;SDS011;11184;52.444;13.578;2023-07-13T16:48:19;1.17;;;0.57;;
22040;SDS011;11184;52.444;13.578;2023-07-13T16:51:05;1.27;;;0.45;;